sensor_id;sensor_type;location;lat;lon;timestamp;P1;durP1;ratioP1;P2;durP2;ratioP2
71973;SDS011;59840;52.122;5.404;2023-07-29T00:00:52;3.00;;;0.90;;
71973;SDS011;59840;52.122;5.404;2023-07-29T00:03:19;5.30;;;0.68;;
71973;SDS011;59840;52.122;5.404;2023-07-29T00:05:47;2.35;;;0.70;;
71973;SDS011;59840;52.122;5.404;2023-07-29T00:08:14;1.77;;;0.70;;
71973;SDS011;59840;52.122;5.404;2023-07-29T00:10:40;1.77;;;0.50;;
71973;SDS011;59840;52.122;5.404;2023-07-29T00:13:07;1.43;;;0.60;;
71973;SDS011;59840;52.122;5.404;2023-07-29T00:15:34;3.03;;;0.60;;
71973;SDS011;59840;52.122;5.404;2023-07-29T00:18:01;1.02;;;0.50;;
71973;SDS011;59840;52.122;5.404;2023-07-29T00:20:28;2.35;;;0.60;;
71973;SDS011;59840;52.122;5.404;2023-07-29T00:22:54;0.93;;;0.70;;
71973;SDS011;59840;52.122;5.404;2023-07-29T00:25:21;0.80;;;0.70;;
71973;SDS011;59840;52.122;5.404;2023-07-29T00:27:48;0.90;;;0.60;;
71973;SDS011;59840;52.122;5.404;2023-07-29T00:30:15;0.93;;;0.57;;
71973;SDS011;59840;52.122;5.404;2023-07-29T00:32:42;2.15;;;0.70;;
71973;SDS011;59840;52.122;5.404;2023-07-29T00:35:09;1.30;;;0.52;;
71973;SDS011;59840;52.122;5.404;2023-07-29T00:37:35;2.77;;;0.90;;
71973;SDS011;59840;52.122;5.404;2023-07-29T00:40:13;1.85;;;0.80;;
71973;SDS011;59840;52.122;5.404;2023-07-29T00:42:42;1.13;;;0.80;;
71973;SDS011;59840;52.122;5.404;2023-07-29T00:45:09;2.65;;;0.60;;
71973;SDS011;59840;52.122;5.404;2023-07-29T00:47:36;2.78;;;0.70;;
71973;SDS011;59840;52.122;5.404;2023-07-29T00:50:04;1.93;;;0.77;;
71973;SDS011;59840;52.122;5.404;2023-07-29T00:52:32;2.40;;;0.60;;
71973;SDS011;59840;52.122;5.404;2023-07-29T00:54:59;0.80;;;0.52;;
71973;SDS011;59840;52.122;5.404;2023-07-29T00:57:26;2.08;;;0.60;;
71973;SDS011;59840;52.122;5.404;2023-07-29T00:59:56;1.05;;;0.50;;
71973;SDS011;59840;52.122;5.404;2023-07-29T01:02:23;1.50;;;0.50;;
71973;SDS011;59840;52.122;5.404;2023-07-29T01:04:53;0.90;;;0.50;;
71973;SDS011;59840;52.122;5.404;2023-07-29T01:07:23;0.70;;;0.50;;
71973;SDS011;59840;52.122;5.404;2023-07-29T01:10:03;0.60;;;0.50;;
71973;SDS011;59840;52.122;5.404;2023-07-29T01:13:01;0.95;;;0.50;;
71973;SDS011;59840;52.122;5.404;2023-07-29T01:15:45;1.40;;;0.40;;
71973;SDS011;59840;52.122;5.404;2023-07-29T01:18:28;1.17;;;0.45;;
71973;SDS011;59840;52.122;5.404;2023-07-29T01:21:03;0.88;;;0.43;;
71973;SDS011;59840;52.122;5.404;2023-07-29T01:23:31;2.80;;;0.40;;
71973;SDS011;59840;52.122;5.404;2023-07-29T01:25:59;2.92;;;0.50;;
71973;SDS011;59840;52.122;5.404;2023-07-29T01:28:26;1.83;;;0.47;;
71973;SDS011;59840;52.122;5.404;2023-07-29T01:33:40;4.35;;;0.50;;
71973;SDS011;59840;52.122;5.404;2023-07-29T01:36:15;2.08;;;0.60;;
71973;SDS011;59840;52.122;5.404;2023-07-29T01:38:49;0.77;;;0.60;;
71973;SDS011;59840;52.122;5.404;2023-07-29T01:41:17;1.93;;;0.47;;
71973;SDS011;59840;52.122;5.404;2023-07-29T01:43:45;1.17;;;0.57;;
71973;SDS011;59840;52.122;5.404;2023-07-29T01:46:13;1.33;;;0.50;;
71973;SDS011;59840;52.122;5.404;2023-07-29T01:48:41;2.45;;;0.60;;
71973;SDS011;59840;52.122;5.404;2023-07-29T01:51:11;2.10;;;0.98;;
71973;SDS011;59840;52.122;5.404;2023-07-29T01:53:39;2.50;;;0.97;;
71973;SDS011;59840;52.122;5.404;2023-07-29T01:56:06;1.30;;;0.82;;
71973;SDS011;59840;52.122;5.404;2023-07-29T01:58:33;2.17;;;1.00;;
71973;SDS011;59840;52.122;5.404;2023-07-29T02:01:00;1.25;;;0.70;;
71973;SDS011;59840;52.122;5.404;2023-07-29T02:03:26;2.53;;;0.90;;
71973;SDS011;59840;52.122;5.404;2023-07-29T02:05:54;1.67;;;0.90;;
71973;SDS011;59840;52.122;5.404;2023-07-29T02:08:20;2.38;;;0.82;;
71973;SDS011;59840;52.122;5.404;2023-07-29T02:10:47;3.35;;;1.13;;
71973;SDS011;59840;52.122;5.404;2023-07-29T02:13:15;2.13;;;1.10;;
71973;SDS011;59840;52.122;5.404;2023-07-29T02:15:41;2.90;;;0.82;;
71973;SDS011;59840;52.122;5.404;2023-07-29T02:18:08;2.30;;;1.03;;
71973;SDS011;59840;52.122;5.404;2023-07-29T02:20:35;2.63;;;1.00;;
71973;SDS011;59840;52.122;5.404;2023-07-29T02:23:05;3.40;;;1.25;;
71973;SDS011;59840;52.122;5.404;2023-07-29T02:25:34;1.20;;;0.93;;
71973;SDS011;59840;52.122;5.404;2023-07-29T02:28:02;2.00;;;1.20;;
71973;SDS011;59840;52.122;5.404;2023-07-29T02:30:30;4.20;;;1.37;;
71973;SDS011;59840;52.122;5.404;2023-07-29T02:32:56;2.15;;;1.23;;
71973;SDS011;59840;52.122;5.404;2023-07-29T02:35:23;2.45;;;1.42;;
71973;SDS011;59840;52.122;5.404;2023-07-29T02:37:50;3.22;;;1.27;;
71973;SDS011;59840;52.122;5.404;2023-07-29T02:40:17;1.98;;;1.38;;
71973;SDS011;59840;52.122;5.404;2023-07-29T02:42:43;2.47;;;1.30;;
71973;SDS011;59840;52.122;5.404;2023-07-29T02:45:10;4.10;;;1.77;;
71973;SDS011;59840;52.122;5.404;2023-07-29T02:47:37;4.05;;;1.42;;
71973;SDS011;59840;52.122;5.404;2023-07-29T02:50:04;4.38;;;2.00;;
71973;SDS011;59840;52.122;5.404;2023-07-29T02:52:34;1.65;;;1.40;;
71973;SDS011;59840;52.122;5.404;2023-07-29T02:55:00;2.67;;;1.30;;
71973;SDS011;59840;52.122;5.404;2023-07-29T02:57:27;2.40;;;1.52;;
71973;SDS011;59840;52.122;5.404;2023-07-29T02:59:54;2.10;;;1.67;;
71973;SDS011;59840;52.122;5.404;2023-07-29T03:02:20;1.95;;;1.75;;
71973;SDS011;59840;52.122;5.404;2023-07-29T03:04:47;3.22;;;2.10;;
71973;SDS011;59840;52.122;5.404;2023-07-29T03:07:14;3.03;;;2.00;;
71973;SDS011;59840;52.122;5.404;2023-07-29T03:09:41;2.95;;;1.90;;
71973;SDS011;59840;52.122;5.404;2023-07-29T03:12:08;4.45;;;2.10;;
71973;SDS011;59840;52.122;5.404;2023-07-29T03:14:35;5.13;;;2.00;;
71973;SDS011;59840;52.122;5.404;2023-07-29T03:17:02;3.90;;;2.30;;
71973;SDS011;59840;52.122;5.404;2023-07-29T03:19:30;4.33;;;2.07;;
71973;SDS011;59840;52.122;5.404;2023-07-29T03:21:57;3.10;;;2.40;;
71973;SDS011;59840;52.122;5.404;2023-07-29T03:24:24;2.92;;;2.20;;
71973;SDS011;59840;52.122;5.404;2023-07-29T03:26:51;2.58;;;2.35;;
71973;SDS011;59840;52.122;5.404;2023-07-29T03:29:17;3.97;;;2.08;;
71973;SDS011;59840;52.122;5.404;2023-07-29T03:31:44;3.83;;;2.00;;
71973;SDS011;59840;52.122;5.404;2023-07-29T03:34:13;3.47;;;2.50;;
71973;SDS011;59840;52.122;5.404;2023-07-29T03:36:40;3.35;;;1.98;;
71973;SDS011;59840;52.122;5.404;2023-07-29T03:39:07;2.85;;;2.15;;
71973;SDS011;59840;52.122;5.404;2023-07-29T03:41:34;2.90;;;1.95;;
71973;SDS011;59840;52.122;5.404;2023-07-29T03:44:00;2.00;;;1.60;;
71973;SDS011;59840;52.122;5.404;2023-07-29T03:46:34;2.53;;;1.85;;
71973;SDS011;59840;52.122;5.404;2023-07-29T03:49:06;2.53;;;2.10;;
71973;SDS011;59840;52.122;5.404;2023-07-29T03:51:47;2.95;;;2.47;;
71973;SDS011;59840;52.122;5.404;2023-07-29T03:56:57;2.83;;;1.90;;
71973;SDS011;59840;52.122;5.404;2023-07-29T03:59:26;2.78;;;2.22;;
71973;SDS011;59840;52.122;5.404;2023-07-29T04:02:03;3.67;;;2.10;;
71973;SDS011;59840;52.122;5.404;2023-07-29T04:04:40;4.03;;;2.17;;
71973;SDS011;59840;52.122;5.404;2023-07-29T04:07:27;3.50;;;2.17;;
71973;SDS011;59840;52.122;5.404;2023-07-29T04:09:57;4.10;;;1.97;;
71973;SDS011;59840;52.122;5.404;2023-07-29T04:12:25;2.42;;;1.70;;
71973;SDS011;59840;52.122;5.404;2023-07-29T04:14:51;7.03;;;2.00;;
71973;SDS011;59840;52.122;5.404;2023-07-29T04:17:18;3.58;;;1.80;;
71973;SDS011;59840;52.122;5.404;2023-07-29T04:19:46;2.78;;;1.52;;
71973;SDS011;59840;52.122;5.404;2023-07-29T04:22:12;3.33;;;1.23;;
71973;SDS011;59840;52.122;5.404;2023-07-29T04:24:40;2.50;;;1.23;;
71973;SDS011;59840;52.122;5.404;2023-07-29T04:27:07;1.38;;;1.08;;
71973;SDS011;59840;52.122;5.404;2023-07-29T04:29:33;1.95;;;1.33;;
71973;SDS011;59840;52.122;5.404;2023-07-29T04:32:05;4.22;;;1.42;;
71973;SDS011;59840;52.122;5.404;2023-07-29T04:34:32;1.60;;;1.10;;
71973;SDS011;59840;52.122;5.404;2023-07-29T04:36:59;2.95;;;1.25;;
71973;SDS011;59840;52.122;5.404;2023-07-29T04:39:25;3.17;;;1.52;;
71973;SDS011;59840;52.122;5.404;2023-07-29T04:41:53;3.88;;;1.35;;
71973;SDS011;59840;52.122;5.404;2023-07-29T04:44:19;1.45;;;1.08;;
71973;SDS011;59840;52.122;5.404;2023-07-29T04:46:46;2.67;;;1.20;;
71973;SDS011;59840;52.122;5.404;2023-07-29T04:49:13;2.30;;;1.00;;
71973;SDS011;59840;52.122;5.404;2023-07-29T04:51:39;3.70;;;1.25;;
71973;SDS011;59840;52.122;5.404;2023-07-29T04:54:06;1.33;;;0.95;;
71973;SDS011;59840;52.122;5.404;2023-07-29T04:56:33;2.05;;;0.95;;
71973;SDS011;59840;52.122;5.404;2023-07-29T04:58:59;1.50;;;0.83;;
71973;SDS011;59840;52.122;5.404;2023-07-29T05:01:26;2.80;;;0.90;;
71973;SDS011;59840;52.122;5.404;2023-07-29T05:03:53;2.10;;;1.20;;
71973;SDS011;59840;52.122;5.404;2023-07-29T05:06:20;2.10;;;1.00;;
71973;SDS011;59840;52.122;5.404;2023-07-29T05:08:46;1.77;;;1.00;;
71973;SDS011;59840;52.122;5.404;2023-07-29T05:11:13;3.93;;;1.20;;
71973;SDS011;59840;52.122;5.404;2023-07-29T05:13:40;2.45;;;1.13;;
71973;SDS011;59840;52.122;5.404;2023-07-29T05:16:11;3.97;;;0.75;;
71973;SDS011;59840;52.122;5.404;2023-07-29T05:18:38;3.95;;;1.15;;
71973;SDS011;59840;52.122;5.404;2023-07-29T05:21:04;3.25;;;0.90;;
71973;SDS011;59840;52.122;5.404;2023-07-29T05:23:31;3.33;;;1.10;;
71973;SDS011;59840;52.122;5.404;2023-07-29T05:25:58;2.33;;;1.25;;
71973;SDS011;59840;52.122;5.404;2023-07-29T05:28:25;2.20;;;1.02;;
71973;SDS011;59840;52.122;5.404;2023-07-29T05:30:51;1.50;;;1.00;;
71973;SDS011;59840;52.122;5.404;2023-07-29T05:33:21;2.63;;;1.30;;
71973;SDS011;59840;52.122;5.404;2023-07-29T05:35:48;2.60;;;1.30;;
71973;SDS011;59840;52.122;5.404;2023-07-29T05:38:14;2.63;;;1.40;;
71973;SDS011;59840;52.122;5.404;2023-07-29T05:40:41;2.92;;;1.42;;
71973;SDS011;59840;52.122;5.404;2023-07-29T05:43:08;1.73;;;1.20;;
71973;SDS011;59840;52.122;5.404;2023-07-29T05:45:35;3.58;;;1.15;;
71973;SDS011;59840;52.122;5.404;2023-07-29T05:48:01;3.87;;;1.40;;
71973;SDS011;59840;52.122;5.404;2023-07-29T05:50:28;2.50;;;1.38;;
71973;SDS011;59840;52.122;5.404;2023-07-29T05:52:55;3.00;;;1.60;;
71973;SDS011;59840;52.122;5.404;2023-07-29T05:55:22;2.33;;;1.38;;
71973;SDS011;59840;52.122;5.404;2023-07-29T05:57:49;2.53;;;1.80;;
71973;SDS011;59840;52.122;5.404;2023-07-29T06:00:23;4.30;;;1.50;;
71973;SDS011;59840;52.122;5.404;2023-07-29T06:02:50;3.60;;;1.70;;
71973;SDS011;59840;52.122;5.404;2023-07-29T06:05:17;2.08;;;1.55;;
71973;SDS011;59840;52.122;5.404;2023-07-29T06:07:45;2.42;;;1.65;;
71973;SDS011;59840;52.122;5.404;2023-07-29T06:10:15;2.65;;;1.95;;
71973;SDS011;59840;52.122;5.404;2023-07-29T06:12:45;3.43;;;1.63;;
71973;SDS011;59840;52.122;5.404;2023-07-29T06:15:13;2.30;;;1.90;;
71973;SDS011;59840;52.122;5.404;2023-07-29T06:17:40;2.92;;;1.80;;
71973;SDS011;59840;52.122;5.404;2023-07-29T06:20:07;2.80;;;2.08;;
71973;SDS011;59840;52.122;5.404;2023-07-29T06:22:34;2.78;;;2.38;;
71973;SDS011;59840;52.122;5.404;2023-07-29T06:25:01;5.83;;;1.93;;
71973;SDS011;59840;52.122;5.404;2023-07-29T06:27:28;3.92;;;2.10;;
71973;SDS011;59840;52.122;5.404;2023-07-29T06:29:55;2.65;;;1.88;;
71973;SDS011;59840;52.122;5.404;2023-07-29T06:32:21;3.08;;;1.88;;
71973;SDS011;59840;52.122;5.404;2023-07-29T06:34:48;3.38;;;1.80;;
71973;SDS011;59840;52.122;5.404;2023-07-29T06:37:15;3.60;;;1.90;;
71973;SDS011;59840;52.122;5.404;2023-07-29T06:39:45;2.90;;;2.05;;
71973;SDS011;59840;52.122;5.404;2023-07-29T06:42:11;4.47;;;2.60;;
71973;SDS011;59840;52.122;5.404;2023-07-29T06:44:38;4.22;;;1.83;;
71973;SDS011;59840;52.122;5.404;2023-07-29T06:47:06;4.53;;;2.67;;
71973;SDS011;59840;52.122;5.404;2023-07-29T06:49:33;4.63;;;2.20;;
71973;SDS011;59840;52.122;5.404;2023-07-29T06:52:00;4.13;;;2.42;;
71973;SDS011;59840;52.122;5.404;2023-07-29T06:54:31;2.45;;;2.10;;
71973;SDS011;59840;52.122;5.404;2023-07-29T06:56:58;5.13;;;2.33;;
71973;SDS011;59840;52.122;5.404;2023-07-29T06:59:25;4.20;;;2.65;;
71973;SDS011;59840;52.122;5.404;2023-07-29T07:01:52;3.73;;;3.33;;
71973;SDS011;59840;52.122;5.404;2023-07-29T07:04:19;5.18;;;2.70;;
71973;SDS011;59840;52.122;5.404;2023-07-29T07:06:45;3.63;;;3.03;;
71973;SDS011;59840;52.122;5.404;2023-07-29T07:09:12;4.97;;;3.15;;
71973;SDS011;59840;52.122;5.404;2023-07-29T07:11:39;3.97;;;3.10;;
71973;SDS011;59840;52.122;5.404;2023-07-29T07:14:05;3.60;;;2.90;;
71973;SDS011;59840;52.122;5.404;2023-07-29T07:16:32;3.40;;;2.40;;
71973;SDS011;59840;52.122;5.404;2023-07-29T07:18:59;3.35;;;2.90;;
71973;SDS011;59840;52.122;5.404;2023-07-29T07:21:25;4.47;;;2.72;;
71973;SDS011;59840;52.122;5.404;2023-07-29T07:23:53;7.28;;;2.80;;
71973;SDS011;59840;52.122;5.404;2023-07-29T07:26:20;4.30;;;2.80;;
71973;SDS011;59840;52.122;5.404;2023-07-29T07:28:46;2.70;;;2.40;;
71973;SDS011;59840;52.122;5.404;2023-07-29T07:31:13;4.25;;;2.85;;
71973;SDS011;59840;52.122;5.404;2023-07-29T07:33:40;4.65;;;3.00;;
71973;SDS011;59840;52.122;5.404;2023-07-29T07:36:06;3.45;;;3.00;;
71973;SDS011;59840;52.122;5.404;2023-07-29T07:38:33;3.60;;;2.50;;
71973;SDS011;59840;52.122;5.404;2023-07-29T07:40:59;3.22;;;2.85;;
71973;SDS011;59840;52.122;5.404;2023-07-29T07:43:26;4.45;;;3.15;;
71973;SDS011;59840;52.122;5.404;2023-07-29T07:45:59;5.55;;;3.20;;
71973;SDS011;59840;52.122;5.404;2023-07-29T07:48:27;6.10;;;3.58;;
71973;SDS011;59840;52.122;5.404;2023-07-29T07:50:54;4.20;;;2.80;;
71973;SDS011;59840;52.122;5.404;2023-07-29T07:53:21;5.35;;;3.50;;
71973;SDS011;59840;52.122;5.404;2023-07-29T07:55:47;4.60;;;3.20;;
71973;SDS011;59840;52.122;5.404;2023-07-29T07:58:14;4.88;;;3.00;;
71973;SDS011;59840;52.122;5.404;2023-07-29T08:00:40;3.80;;;3.50;;
71973;SDS011;59840;52.122;5.404;2023-07-29T08:03:07;3.20;;;3.00;;
71973;SDS011;59840;52.122;5.404;2023-07-29T08:05:35;5.13;;;3.05;;
71973;SDS011;59840;52.122;5.404;2023-07-29T08:08:02;3.20;;;2.90;;
71973;SDS011;59840;52.122;5.404;2023-07-29T08:10:29;3.20;;;3.00;;
71973;SDS011;59840;52.122;5.404;2023-07-29T08:12:55;3.05;;;2.80;;
71973;SDS011;59840;52.122;5.404;2023-07-29T08:15:22;2.77;;;2.47;;
71973;SDS011;59840;52.122;5.404;2023-07-29T08:17:48;2.72;;;2.45;;
71973;SDS011;59840;52.122;5.404;2023-07-29T08:20:15;2.75;;;2.45;;
71973;SDS011;59840;52.122;5.404;2023-07-29T08:22:42;3.05;;;2.75;;
71973;SDS011;59840;52.122;5.404;2023-07-29T08:25:08;5.20;;;2.60;;
71973;SDS011;59840;52.122;5.404;2023-07-29T08:27:35;3.87;;;2.50;;
71973;SDS011;59840;52.122;5.404;2023-07-29T08:30:01;5.43;;;2.75;;
71973;SDS011;59840;52.122;5.404;2023-07-29T08:32:28;2.90;;;2.20;;
71973;SDS011;59840;52.122;5.404;2023-07-29T08:34:55;2.60;;;2.35;;
71973;SDS011;59840;52.122;5.404;2023-07-29T08:37:21;3.10;;;2.33;;
71973;SDS011;59840;52.122;5.404;2023-07-29T08:39:48;3.90;;;2.43;;
71973;SDS011;59840;52.122;5.404;2023-07-29T08:42:15;2.90;;;2.08;;
71973;SDS011;59840;52.122;5.404;2023-07-29T08:44:45;2.17;;;1.85;;
71973;SDS011;59840;52.122;5.404;2023-07-29T08:47:14;2.25;;;1.88;;
71973;SDS011;59840;52.122;5.404;2023-07-29T08:49:41;3.45;;;2.47;;
71973;SDS011;59840;52.122;5.404;2023-07-29T08:52:08;3.07;;;2.13;;
71973;SDS011;59840;52.122;5.404;2023-07-29T08:54:37;2.85;;;1.95;;
71973;SDS011;59840;52.122;5.404;2023-07-29T08:57:04;5.20;;;2.33;;
71973;SDS011;59840;52.122;5.404;2023-07-29T08:59:32;2.00;;;1.80;;
71973;SDS011;59840;52.122;5.404;2023-07-29T09:01:59;2.90;;;1.90;;
71973;SDS011;59840;52.122;5.404;2023-07-29T09:04:26;2.47;;;1.63;;
71973;SDS011;59840;52.122;5.404;2023-07-29T09:06:52;2.95;;;2.00;;
71973;SDS011;59840;52.122;5.404;2023-07-29T09:09:22;2.78;;;1.75;;
71973;SDS011;59840;52.122;5.404;2023-07-29T09:11:48;2.15;;;2.05;;
71973;SDS011;59840;52.122;5.404;2023-07-29T09:14:15;2.13;;;1.90;;
71973;SDS011;59840;52.122;5.404;2023-07-29T09:16:41;2.43;;;2.10;;
71973;SDS011;59840;52.122;5.404;2023-07-29T09:19:08;2.50;;;2.30;;
71973;SDS011;59840;52.122;5.404;2023-07-29T09:21:38;3.13;;;2.92;;
71973;SDS011;59840;52.122;5.404;2023-07-29T09:24:05;3.33;;;2.85;;
71973;SDS011;59840;52.122;5.404;2023-07-29T09:26:34;4.50;;;2.67;;
71973;SDS011;59840;52.122;5.404;2023-07-29T09:29:02;2.83;;;2.63;;
71973;SDS011;59840;52.122;5.404;2023-07-29T09:31:28;2.25;;;2.05;;
71973;SDS011;59840;52.122;5.404;2023-07-29T09:33:56;2.90;;;2.60;;
71973;SDS011;59840;52.122;5.404;2023-07-29T09:36:24;2.65;;;2.35;;
71973;SDS011;59840;52.122;5.404;2023-07-29T09:38:52;2.95;;;2.22;;
71973;SDS011;59840;52.122;5.404;2023-07-29T09:41:23;5.87;;;2.23;;
71973;SDS011;59840;52.122;5.404;2023-07-29T09:43:57;3.95;;;2.80;;
71973;SDS011;59840;52.122;5.404;2023-07-29T09:46:32;2.72;;;2.50;;
71973;SDS011;59840;52.122;5.404;2023-07-29T09:49:02;3.40;;;2.60;;
71973;SDS011;59840;52.122;5.404;2023-07-29T09:51:37;3.35;;;2.97;;
71973;SDS011;59840;52.122;5.404;2023-07-29T09:54:05;5.00;;;2.37;;
71973;SDS011;59840;52.122;5.404;2023-07-29T09:56:33;3.08;;;2.58;;
71973;SDS011;59840;52.122;5.404;2023-07-29T09:59:00;3.22;;;2.47;;
71973;SDS011;59840;52.122;5.404;2023-07-29T10:01:30;3.70;;;3.13;;
71973;SDS011;59840;52.122;5.404;2023-07-29T10:03:58;3.03;;;2.83;;
71973;SDS011;59840;52.122;5.404;2023-07-29T10:06:28;5.20;;;3.20;;
71973;SDS011;59840;52.122;5.404;2023-07-29T10:08:55;3.85;;;3.10;;
71973;SDS011;59840;52.122;5.404;2023-07-29T10:11:23;6.47;;;3.45;;
71973;SDS011;59840;52.122;5.404;2023-07-29T10:13:51;4.38;;;3.97;;
71973;SDS011;59840;52.122;5.404;2023-07-29T10:16:34;5.00;;;3.70;;
71973;SDS011;59840;52.122;5.404;2023-07-29T10:19:04;3.43;;;3.23;;
71973;SDS011;59840;52.122;5.404;2023-07-29T10:21:31;4.30;;;3.35;;
71973;SDS011;59840;52.122;5.404;2023-07-29T10:23:59;4.47;;;3.80;;
71973;SDS011;59840;52.122;5.404;2023-07-29T10:26:29;4.47;;;4.07;;
71973;SDS011;59840;52.122;5.404;2023-07-29T10:28:57;4.30;;;3.90;;
71973;SDS011;59840;52.122;5.404;2023-07-29T10:31:31;5.27;;;4.00;;
71973;SDS011;59840;52.122;5.404;2023-07-29T10:33:58;4.20;;;3.88;;
71973;SDS011;59840;52.122;5.404;2023-07-29T10:36:25;4.30;;;3.92;;
71973;SDS011;59840;52.122;5.404;2023-07-29T10:38:52;5.40;;;4.60;;
71973;SDS011;59840;52.122;5.404;2023-07-29T10:41:19;4.93;;;4.53;;
71973;SDS011;59840;52.122;5.404;2023-07-29T10:43:46;4.27;;;3.87;;
71973;SDS011;59840;52.122;5.404;2023-07-29T10:46:16;4.10;;;3.80;;
71973;SDS011;59840;52.122;5.404;2023-07-29T10:53:51;4.47;;;4.07;;
71973;SDS011;59840;52.122;5.404;2023-07-29T10:56:29;5.23;;;3.70;;
71973;SDS011;59840;52.122;5.404;2023-07-29T11:01:57;3.92;;;3.53;;
71973;SDS011;59840;52.122;5.404;2023-07-29T11:04:25;3.20;;;2.80;;
71973;SDS011;59840;52.122;5.404;2023-07-29T11:09:42;2.23;;;1.80;;
71973;SDS011;59840;52.122;5.404;2023-07-29T11:17:35;1.20;;;1.00;;
71973;SDS011;59840;52.122;5.404;2023-07-29T11:20:03;1.38;;;1.00;;
71973;SDS011;59840;52.122;5.404;2023-07-29T11:22:30;2.27;;;1.27;;
71973;SDS011;59840;52.122;5.404;2023-07-29T11:24:59;1.63;;;0.93;;
71973;SDS011;59840;52.122;5.404;2023-07-29T11:27:26;1.17;;;1.08;;
71973;SDS011;59840;52.122;5.404;2023-07-29T11:29:57;1.10;;;1.00;;
71973;SDS011;59840;52.122;5.404;2023-07-29T11:32:24;1.45;;;0.93;;
71973;SDS011;59840;52.122;5.404;2023-07-29T11:34:51;1.50;;;0.93;;
71973;SDS011;59840;52.122;5.404;2023-07-29T11:37:18;1.67;;;0.80;;
71973;SDS011;59840;52.122;5.404;2023-07-29T11:39:47;0.85;;;0.63;;
71973;SDS011;59840;52.122;5.404;2023-07-29T11:42:17;1.15;;;1.05;;
71973;SDS011;59840;52.122;5.404;2023-07-29T11:44:44;1.90;;;0.75;;
71973;SDS011;59840;52.122;5.404;2023-07-29T11:47:11;1.60;;;1.07;;
71973;SDS011;59840;52.122;5.404;2023-07-29T11:49:39;0.65;;;0.60;;
71973;SDS011;59840;52.122;5.404;2023-07-29T11:52:10;2.30;;;0.85;;
71973;SDS011;59840;52.122;5.404;2023-07-29T11:54:38;0.85;;;0.80;;
71973;SDS011;59840;52.122;5.404;2023-07-29T11:57:09;1.38;;;0.82;;
71973;SDS011;59840;52.122;5.404;2023-07-29T11:59:36;2.10;;;1.10;;
71973;SDS011;59840;52.122;5.404;2023-07-29T12:02:05;1.08;;;0.90;;
71973;SDS011;59840;52.122;5.404;2023-07-29T12:04:36;1.65;;;1.10;;
71973;SDS011;59840;52.122;5.404;2023-07-29T12:07:04;1.20;;;0.90;;
71973;SDS011;59840;52.122;5.404;2023-07-29T12:09:32;2.78;;;1.05;;
71973;SDS011;59840;52.122;5.404;2023-07-29T12:12:00;1.80;;;1.13;;
71973;SDS011;59840;52.122;5.404;2023-07-29T12:14:28;2.00;;;1.30;;
71973;SDS011;59840;52.122;5.404;2023-07-29T12:16:55;2.33;;;1.45;;
71973;SDS011;59840;52.122;5.404;2023-07-29T12:19:22;1.23;;;1.00;;
71973;SDS011;59840;52.122;5.404;2023-07-29T12:21:48;1.10;;;0.90;;
71973;SDS011;59840;52.122;5.404;2023-07-29T12:24:15;1.63;;;1.20;;
71973;SDS011;59840;52.122;5.404;2023-07-29T12:26:42;1.05;;;0.95;;
71973;SDS011;59840;52.122;5.404;2023-07-29T12:29:12;1.15;;;0.85;;
71973;SDS011;59840;52.122;5.404;2023-07-29T12:31:40;1.65;;;1.05;;
71973;SDS011;59840;52.122;5.404;2023-07-29T12:34:07;1.55;;;1.00;;
71973;SDS011;59840;52.122;5.404;2023-07-29T12:36:47;1.27;;;1.17;;
71973;SDS011;59840;52.122;5.404;2023-07-29T12:39:15;2.03;;;1.20;;
71973;SDS011;59840;52.122;5.404;2023-07-29T12:41:50;2.58;;;1.13;;
71973;SDS011;59840;52.122;5.404;2023-07-29T12:44:17;3.80;;;1.02;;
71973;SDS011;59840;52.122;5.404;2023-07-29T12:46:44;1.92;;;1.00;;
71973;SDS011;59840;52.122;5.404;2023-07-29T12:49:11;2.00;;;1.23;;
71973;SDS011;59840;52.122;5.404;2023-07-29T12:51:38;1.38;;;0.88;;
71973;SDS011;59840;52.122;5.404;2023-07-29T12:54:04;3.45;;;1.05;;
71973;SDS011;59840;52.122;5.404;2023-07-29T12:56:32;1.00;;;0.90;;
71973;SDS011;59840;52.122;5.404;2023-07-29T12:59:00;1.15;;;1.05;;
71973;SDS011;59840;52.122;5.404;2023-07-29T13:01:27;3.03;;;0.80;;
71973;SDS011;59840;52.122;5.404;2023-07-29T13:03:54;1.92;;;1.17;;
71973;SDS011;59840;52.122;5.404;2023-07-29T13:06:22;1.40;;;1.20;;
71973;SDS011;59840;52.122;5.404;2023-07-29T13:08:49;2.10;;;1.20;;
71973;SDS011;59840;52.122;5.404;2023-07-29T13:11:16;1.40;;;1.13;;
71973;SDS011;59840;52.122;5.404;2023-07-29T13:13:43;1.27;;;0.97;;
71973;SDS011;59840;52.122;5.404;2023-07-29T13:16:11;2.40;;;0.88;;
71973;SDS011;59840;52.122;5.404;2023-07-29T13:18:39;0.70;;;0.68;;
71973;SDS011;59840;52.122;5.404;2023-07-29T13:21:06;0.80;;;0.70;;
71973;SDS011;59840;52.122;5.404;2023-07-29T13:23:33;3.38;;;0.82;;
71973;SDS011;59840;52.122;5.404;2023-07-29T13:26:00;0.97;;;0.87;;
71973;SDS011;59840;52.122;5.404;2023-07-29T13:28:27;0.80;;;0.70;;
71973;SDS011;59840;52.122;5.404;2023-07-29T13:30:54;1.10;;;0.70;;
71973;SDS011;59840;52.122;5.404;2023-07-29T13:33:20;2.17;;;0.75;;
71973;SDS011;59840;52.122;5.404;2023-07-29T13:35:47;0.80;;;0.80;;
71973;SDS011;59840;52.122;5.404;2023-07-29T13:38:13;0.70;;;0.70;;
71973;SDS011;59840;52.122;5.404;2023-07-29T13:40:40;0.80;;;0.80;;
71973;SDS011;59840;52.122;5.404;2023-07-29T13:43:07;1.58;;;1.02;;
71973;SDS011;59840;52.122;5.404;2023-07-29T13:45:34;1.38;;;1.00;;
71973;SDS011;59840;52.122;5.404;2023-07-29T13:48:01;0.70;;;0.70;;
71973;SDS011;59840;52.122;5.404;2023-07-29T13:50:27;3.10;;;0.93;;
71973;SDS011;59840;52.122;5.404;2023-07-29T13:52:54;1.08;;;0.75;;
71973;SDS011;59840;52.122;5.404;2023-07-29T13:55:21;1.23;;;1.05;;
71973;SDS011;59840;52.122;5.404;2023-07-29T13:57:47;1.48;;;1.00;;
71973;SDS011;59840;52.122;5.404;2023-07-29T14:00:14;1.35;;;0.98;;
71973;SDS011;59840;52.122;5.404;2023-07-29T14:02:41;1.20;;;1.00;;
71973;SDS011;59840;52.122;5.404;2023-07-29T14:05:08;1.10;;;0.90;;
71973;SDS011;59840;52.122;5.404;2023-07-29T14:07:38;3.20;;;1.10;;
71973;SDS011;59840;52.122;5.404;2023-07-29T14:10:05;1.67;;;1.10;;
71973;SDS011;59840;52.122;5.404;2023-07-29T14:12:32;1.65;;;1.20;;
71973;SDS011;59840;52.122;5.404;2023-07-29T14:14:59;1.40;;;1.30;;
71973;SDS011;59840;52.122;5.404;2023-07-29T14:17:26;1.70;;;1.50;;
71973;SDS011;59840;52.122;5.404;2023-07-29T14:19:53;1.38;;;1.20;;
71973;SDS011;59840;52.122;5.404;2023-07-29T14:22:19;1.05;;;0.93;;
71973;SDS011;59840;52.122;5.404;2023-07-29T14:24:46;1.63;;;1.10;;
71973;SDS011;59840;52.122;5.404;2023-07-29T14:27:12;4.67;;;1.27;;
71973;SDS011;59840;52.122;5.404;2023-07-29T14:29:40;1.98;;;1.10;;
71973;SDS011;59840;52.122;5.404;2023-07-29T14:32:06;2.05;;;0.82;;
71973;SDS011;59840;52.122;5.404;2023-07-29T14:34:33;1.35;;;1.10;;
71973;SDS011;59840;52.122;5.404;2023-07-29T14:37:00;2.35;;;1.27;;
71973;SDS011;59840;52.122;5.404;2023-07-29T14:39:26;4.60;;;1.50;;
71973;SDS011;59840;52.122;5.404;2023-07-29T14:41:53;1.50;;;1.05;;
71973;SDS011;59840;52.122;5.404;2023-07-29T14:44:20;1.73;;;0.95;;
71973;SDS011;59840;52.122;5.404;2023-07-29T14:46:46;0.90;;;0.80;;
71973;SDS011;59840;52.122;5.404;2023-07-29T14:49:13;0.70;;;0.60;;
71973;SDS011;59840;52.122;5.404;2023-07-29T14:51:40;1.00;;;0.70;;
71973;SDS011;59840;52.122;5.404;2023-07-29T14:54:06;1.00;;;0.80;;
71973;SDS011;59840;52.122;5.404;2023-07-29T14:56:33;1.55;;;0.75;;
71973;SDS011;59840;52.122;5.404;2023-07-29T14:59:00;1.23;;;0.68;;
71973;SDS011;59840;52.122;5.404;2023-07-29T15:01:27;0.88;;;0.68;;
71973;SDS011;59840;52.122;5.404;2023-07-29T15:03:53;1.83;;;0.70;;
71973;SDS011;59840;52.122;5.404;2023-07-29T15:06:20;1.58;;;0.60;;
71973;SDS011;59840;52.122;5.404;2023-07-29T15:08:47;1.17;;;0.57;;
71973;SDS011;59840;52.122;5.404;2023-07-29T15:11:14;1.88;;;0.50;;
71973;SDS011;59840;52.122;5.404;2023-07-29T15:13:40;1.67;;;0.52;;